createdAt,value
2018-02-18T00:00:29.288Z,4.30
2018-02-18T00:03:03.158Z,4.30
2018-02-18T00:05:36.786Z,4.30
2018-02-18T00:08:10.685Z,4.30
2018-02-18T00:10:44.450Z,4.20
2018-02-18T00:13:18.115Z,4.20
2018-02-18T00:15:51.951Z,4.20
2018-02-18T00:18:25.643Z,4.10
2018-02-18T00:20:59.356Z,4.00
2018-02-18T00:23:33.009Z,4.00
2018-02-18T00:26:06.702Z,4.00
2018-02-18T00:28:40.489Z,4.00
2018-02-18T00:31:14.125Z,4.00
2018-02-18T00:33:47.728Z,4.00
2018-02-18T00:36:22.323Z,3.90
2018-02-18T00:38:56.187Z,3.90
2018-02-18T00:41:29.836Z,3.90
2018-02-18T00:44:03.579Z,3.90
2018-02-18T00:46:37.374Z,3.90
2018-02-18T00:49:12.071Z,3.90
2018-02-18T00:51:46.010Z,3.80
2018-02-18T00:54:19.762Z,3.80
2018-02-18T00:56:53.551Z,3.70
2018-02-18T00:59:27.449Z,3.70
2018-02-18T01:02:01.471Z,3.60
2018-02-18T01:04:35.191Z,3.60
2018-02-18T01:07:09.227Z,3.60
2018-02-18T01:09:43.056Z,3.70
2018-02-18T01:12:16.695Z,3.60
2018-02-18T01:14:50.505Z,3.70
2018-02-18T01:17:24.239Z,3.60
2018-02-18T01:19:58.096Z,3.60
2018-02-18T01:22:32.676Z,3.50
2018-02-18T01:25:06.697Z,3.40
2018-02-18T01:27:40.444Z,3.30
2018-02-18T01:30:14.114Z,3.30
2018-02-18T01:32:48.670Z,3.40
2018-02-18T01:35:22.488Z,3.30
2018-02-18T01:37:57.041Z,3.40
2018-02-18T01:40:30.954Z,3.40
2018-02-18T01:43:04.576Z,3.40
2018-02-18T01:45:38.087Z,3.50
2018-02-18T01:48:12.664Z,3.30
2018-02-18T01:50:46.396Z,3.30
2018-02-18T01:53:20.241Z,3.30
2018-02-18T01:55:54.302Z,3.20
2018-02-18T01:58:28.031Z,3.10
2018-02-18T02:01:02.106Z,3.10
2018-02-18T02:03:36.190Z,3.10
2018-02-18T02:06:10.159Z,3.00
2018-02-18T02:08:44.133Z,2.90
2018-02-18T02:11:18.567Z,3.00
2018-02-18T02:13:52.308Z,3.00
2018-02-18T02:16:26.241Z,3.10
2018-02-18T02:19:00.043Z,3.10
2018-02-18T02:21:33.771Z,3.20
2018-02-18T02:24:08.343Z,3.10
2018-02-18T02:26:42.283Z,3.00
2018-02-18T02:29:15.875Z,2.90
2018-02-18T02:31:50.512Z,2.70
2018-02-18T02:34:24.391Z,2.70
2018-02-18T02:36:57.992Z,2.70
2018-02-18T02:39:31.608Z,2.70
2018-02-18T02:42:05.490Z,2.60
2018-02-18T02:44:39.942Z,2.50
2018-02-18T02:47:13.896Z,2.50
2018-02-18T02:49:47.840Z,2.50
2018-02-18T02:52:22.172Z,2.40
2018-02-18T02:54:55.808Z,2.40
2018-02-18T02:57:29.433Z,2.30
2018-02-18T03:00:03.894Z,2.40
2018-02-18T03:02:38.552Z,2.50
2018-02-18T03:05:12.533Z,2.50
2018-02-18T03:07:46.626Z,2.60
2018-02-18T03:10:20.668Z,2.50
2018-02-18T03:12:55.214Z,2.40
2018-02-18T03:15:29.341Z,2.40
2018-02-18T03:18:03.036Z,2.40
2018-02-18T03:20:37.704Z,2.30
2018-02-18T03:23:11.974Z,2.30
2018-02-18T03:25:45.619Z,2.40
2018-02-18T03:28:19.614Z,2.30
2018-02-18T03:30:53.451Z,2.30
2018-02-18T03:33:27.258Z,2.30
2018-02-18T03:36:00.930Z,2.20
2018-02-18T03:38:35.227Z,2.20
2018-02-18T03:41:09.052Z,2.20
2018-02-18T03:43:43.432Z,2.20
2018-02-18T03:46:17.974Z,2.10
2018-02-18T03:48:51.636Z,2.10
2018-02-18T03:51:25.215Z,2.20
2018-02-18T03:53:59.071Z,2.20
2018-02-18T03:56:33.422Z,2.60
2018-02-18T03:59:07.315Z,2.30
2018-02-18T04:01:40.969Z,2.30
2018-02-18T04:04:14.557Z,2.40
2018-02-18T04:06:48.284Z,2.30
2018-02-18T04:09:22.849Z,2.30
2018-02-18T04:11:56.913Z,2.30
2018-02-18T04:14:31.177Z,2.30
2018-02-18T04:17:05.233Z,2.30
2018-02-18T04:19:39.287Z,2.30
2018-02-18T04:22:13.752Z,2.20
2018-02-18T04:24:47.890Z,2.20
2018-02-18T04:27:22.568Z,2.20
2018-02-18T04:29:56.539Z,2.20
2018-02-18T04:32:30.338Z,2.20
2018-02-18T04:35:04.248Z,2.20
2018-02-18T04:37:38.020Z,2.10
2018-02-18T04:40:12.385Z,2.20
2018-02-18T04:42:46.603Z,2.10
2018-02-18T04:45:20.221Z,2.10
2018-02-18T04:47:54.562Z,2.10
2018-02-18T04:50:28.454Z,2.00
2018-02-18T04:53:02.960Z,2.00
2018-02-18T04:55:36.927Z,2.00
2018-02-18T04:58:11.298Z,2.00
2018-02-18T05:00:45.190Z,2.00
2018-02-18T05:03:19.644Z,1.90
2018-02-18T05:05:53.604Z,1.90
2018-02-18T05:08:27.443Z,1.90
2018-02-18T05:11:01.128Z,1.70
2018-02-18T05:13:34.851Z,1.70
2018-02-18T05:16:08.645Z,1.60
2018-02-18T05:18:42.488Z,1.60
2018-02-18T05:21:16.175Z,1.60
2018-02-18T05:23:50.492Z,1.60
2018-02-18T05:26:24.194Z,1.60
2018-02-18T05:28:58.719Z,1.50
2018-02-18T05:31:32.988Z,1.50
2018-02-18T05:34:06.844Z,1.50
2018-02-18T05:36:41.027Z,1.50
2018-02-18T05:39:15.692Z,1.50
2018-02-18T05:41:49.695Z,1.50
2018-02-18T05:44:23.654Z,1.40
2018-02-18T05:46:58.430Z,1.40
2018-02-18T05:49:32.106Z,1.40
2018-02-18T05:52:05.868Z,1.30
2018-02-18T05:54:39.820Z,1.30
2018-02-18T05:57:14.452Z,1.40
2018-02-18T05:59:48.042Z,1.40
2018-02-18T06:02:21.602Z,1.40
2018-02-18T06:04:55.289Z,1.30
2018-02-18T06:07:29.701Z,1.40
2018-02-18T06:10:03.820Z,1.40
2018-02-18T06:12:37.705Z,1.40
2018-02-18T06:15:11.318Z,1.40
2018-02-18T06:17:44.976Z,1.40
2018-02-18T06:20:19.380Z,1.40
2018-02-18T06:22:53.952Z,1.40
2018-02-18T06:25:27.907Z,1.40
2018-02-18T06:28:02.184Z,1.40
2018-02-18T06:30:35.982Z,1.40
2018-02-18T06:33:09.640Z,1.30
2018-02-18T06:35:44.128Z,1.30
2018-02-18T06:38:17.909Z,1.30
2018-02-18T06:40:51.592Z,1.40
2018-02-18T06:43:25.980Z,1.40
2018-02-18T06:45:59.834Z,1.40
2018-02-18T06:48:34.514Z,1.40
2018-02-18T06:51:08.399Z,1.40
2018-02-18T06:53:43.528Z,1.40
2018-02-18T06:56:17.119Z,1.50
2018-02-18T06:58:51.180Z,1.50
2018-02-18T07:04:04.876Z,1.60
2018-02-18T07:06:38.646Z,1.60
2018-02-18T07:09:12.304Z,1.70
2018-02-18T07:11:45.992Z,1.70
2018-02-18T07:14:21.238Z,1.80
2018-02-18T07:16:55.267Z,1.90
2018-02-18T07:19:29.668Z,1.90
2018-02-18T07:22:03.641Z,1.90
2018-02-18T07:24:37.168Z,1.90
2018-02-18T07:27:10.792Z,2.00
2018-02-18T07:29:44.389Z,2.30
2018-02-18T07:32:18.205Z,2.40
2018-02-18T07:34:51.799Z,3.30
2018-02-18T07:37:25.517Z,3.40
2018-02-18T07:39:59.544Z,3.90
2018-02-18T07:42:33.829Z,4.30
2018-02-18T07:45:07.632Z,4.30
2018-02-18T07:47:41.343Z,4.80
2018-02-18T07:50:14.936Z,5.50
2018-02-18T07:52:48.831Z,5.70
2018-02-18T07:55:23.115Z,5.70
2018-02-18T07:57:57.133Z,6.40
2018-02-18T08:00:31.307Z,6.60
2018-02-18T08:03:05.677Z,6.50
2018-02-18T08:05:39.859Z,6.40
2018-02-18T08:08:13.772Z,6.40
2018-02-18T08:10:47.528Z,6.10
2018-02-18T08:13:22.218Z,6.10
2018-02-18T08:15:57.008Z,6.50
2018-02-18T08:18:31.787Z,7.30
2018-02-18T08:21:06.261Z,8.60
2018-02-18T08:23:40.598Z,8.90
2018-02-18T08:26:14.244Z,9.90
2018-02-18T08:28:48.015Z,10.90
2018-02-18T08:31:22.579Z,10.60
2018-02-18T08:33:56.450Z,10.20
2018-02-18T08:36:30.260Z,9.70
2018-02-18T08:39:04.102Z,9.70
2018-02-18T08:41:37.843Z,9.90
2018-02-18T08:44:11.810Z,9.90
2018-02-18T08:46:45.344Z,10.40
2018-02-18T08:49:19.140Z,10.90
2018-02-18T08:51:52.988Z,12.40
2018-02-18T08:54:27.656Z,12.60
2018-02-18T08:57:01.615Z,12.60
2018-02-18T08:59:36.188Z,12.30
2018-02-18T09:02:10.506Z,12.20
2018-02-18T09:04:44.288Z,12.60
2018-02-18T09:07:18.083Z,12.60
2018-02-18T09:09:51.815Z,13.80
2018-02-18T09:12:26.323Z,14.70
2018-02-18T09:15:00.236Z,15.80
2018-02-18T09:17:34.194Z,15.80
2018-02-18T09:20:08.535Z,17.30
2018-02-18T09:22:42.553Z,17.30
2018-02-18T09:25:16.220Z,18.40
2018-02-18T09:27:50.688Z,18.40
2018-02-18T09:30:24.789Z,18.30
2018-02-18T09:32:58.551Z,17.80
2018-02-18T09:35:32.304Z,17.40
2018-02-18T09:38:06.256Z,17.90
2018-02-18T09:40:40.793Z,18.80
2018-02-18T09:43:14.515Z,18.80
2018-02-18T09:45:48.420Z,19.80
2018-02-18T09:48:22.919Z,20.10
2018-02-18T09:50:57.504Z,20.30
2018-02-18T09:53:32.252Z,21.10
2018-02-18T09:56:06.406Z,21.10
2018-02-18T09:58:41.110Z,22.30
2018-02-18T10:01:14.795Z,22.30
2018-02-18T10:03:48.573Z,22.50
2018-02-18T10:06:22.544Z,22.70
2018-02-18T10:08:56.311Z,22.00
2018-02-18T10:11:30.348Z,21.10
2018-02-18T10:14:04.864Z,21.30
2018-02-18T10:16:38.662Z,21.40
2018-02-18T10:19:12.430Z,21.80
2018-02-18T10:21:46.880Z,21.90
2018-02-18T10:24:20.776Z,21.90
2018-02-18T10:26:54.328Z,21.90
2018-02-18T10:29:28.200Z,21.70
2018-02-18T10:32:03.808Z,21.80
2018-02-18T10:34:37.610Z,21.70
2018-02-18T10:37:11.935Z,22.20
2018-02-18T10:39:46.038Z,22.10
2018-02-18T10:42:20.186Z,21.70
2018-02-18T10:44:54.580Z,21.50
2018-02-18T10:47:28.622Z,21.50
2018-02-18T10:50:02.321Z,20.50
2018-02-18T10:52:36.200Z,20.00
2018-02-18T10:55:09.807Z,19.10
2018-02-18T10:57:44.367Z,18.90
2018-02-18T11:00:19.072Z,18.30
2018-02-18T11:02:54.335Z,18.40
2018-02-18T11:05:28.880Z,18.60
2018-02-18T11:08:02.886Z,19.00
2018-02-18T11:10:37.256Z,19.00
2018-02-18T11:13:12.071Z,19.20
2018-02-18T11:15:46.132Z,19.20
2018-02-18T11:18:20.573Z,19.30
2018-02-18T11:20:54.634Z,19.30
2018-02-18T11:23:28.574Z,19.20
2018-02-18T11:26:03.291Z,17.10
2018-02-18T11:28:37.788Z,18.10
2018-02-18T11:31:11.758Z,18.40
2018-02-18T11:33:45.633Z,18.40
2018-02-18T11:36:19.566Z,18.60
2018-02-18T11:38:54.090Z,19.00
2018-02-18T11:41:28.353Z,19.70
2018-02-18T11:44:02.612Z,19.60
2018-02-18T11:46:36.559Z,19.60
2018-02-18T11:49:11.474Z,18.60
2018-02-18T11:51:46.251Z,18.20
2018-02-18T11:54:20.584Z,18.10
2018-02-18T11:56:54.649Z,18.20
2018-02-18T11:59:29.192Z,18.20
2018-02-18T12:02:03.233Z,18.70
2018-02-18T12:04:37.316Z,18.70
2018-02-18T12:07:11.123Z,18.40
2018-02-18T12:09:44.971Z,18.40
2018-02-18T12:12:18.904Z,18.40
2018-02-18T12:14:54.631Z,18.20
2018-02-18T12:17:28.730Z,17.90
2018-02-18T12:20:02.235Z,17.60
2018-02-18T12:22:36.704Z,17.60
2018-02-18T12:25:11.637Z,17.80
2018-02-18T12:27:45.632Z,17.70
2018-02-18T12:30:19.872Z,17.70
2018-02-18T12:32:54.382Z,17.30
2018-02-18T12:35:28.115Z,17.20
2018-02-18T12:38:02.553Z,17.10
2018-02-18T12:40:36.255Z,17.10
2018-02-18T12:43:10.280Z,16.80
2018-02-18T12:45:44.192Z,16.80
2018-02-18T12:48:19.060Z,16.40
2018-02-18T12:50:54.119Z,15.90
2018-02-18T12:53:28.223Z,15.80
2018-02-18T12:56:02.844Z,15.60
2018-02-18T12:58:36.404Z,15.50
2018-02-18T13:01:10.715Z,15.30
2018-02-18T13:03:44.812Z,15.30
2018-02-18T13:06:18.896Z,15.30
2018-02-18T13:08:53.039Z,15.40
2018-02-18T13:11:26.940Z,15.50
2018-02-18T13:14:01.061Z,15.30
2018-02-18T13:16:35.138Z,15.00
2018-02-18T13:19:08.905Z,15.00
2018-02-18T13:21:43.012Z,15.00
2018-02-18T13:24:17.052Z,14.90
2018-02-18T13:26:50.878Z,14.80
2018-02-18T13:29:25.043Z,14.70
2018-02-18T13:31:59.269Z,14.70
2018-02-18T13:34:33.448Z,14.60
2018-02-18T13:37:07.494Z,14.30
2018-02-18T13:39:41.546Z,14.10
2018-02-18T13:42:16.392Z,13.70
2018-02-18T13:44:50.544Z,13.70
2018-02-18T13:47:24.853Z,13.80
2018-02-18T13:49:59.179Z,9.90
2018-02-18T13:52:34.624Z,13.60
2018-02-18T13:55:08.671Z,13.70
2018-02-18T13:57:42.411Z,13.70
2018-02-18T14:00:16.525Z,13.50
2018-02-18T14:02:51.720Z,13.00
2018-02-18T14:05:25.901Z,12.80
2018-02-18T14:07:59.584Z,12.80
2018-02-18T14:10:33.461Z,12.80
2018-02-18T14:13:07.299Z,12.80
2018-02-18T14:15:41.683Z,12.80
2018-02-18T14:18:16.091Z,12.80
2018-02-18T14:20:50.932Z,12.80
2018-02-18T14:23:25.985Z,12.70
2018-02-18T14:26:00.134Z,12.40
2018-02-18T14:28:34.181Z,12.20
2018-02-18T14:31:08.008Z,12.00
2018-02-18T14:33:42.865Z,11.90
2018-02-18T14:36:17.082Z,11.80
2018-02-18T14:38:51.345Z,11.90
2018-02-18T14:41:37.497Z,12.10
2018-02-18T14:44:23.924Z,12.10
2018-02-18T14:47:10.491Z,12.30
2018-02-18T14:49:56.700Z,12.30
2018-02-18T14:52:43.353Z,12.10
2018-02-18T14:55:29.899Z,11.90
2018-02-18T14:58:04.236Z,11.60
2018-02-18T15:00:39.104Z,11.40
2018-02-18T15:03:13.320Z,11.20
2018-02-18T15:05:46.829Z,11.20
2018-02-18T15:08:21.385Z,11.10
2018-02-18T15:10:56.265Z,10.90
2018-02-18T15:13:31.115Z,10.80
2018-02-18T15:16:05.147Z,10.80
2018-02-18T15:18:39.090Z,10.80
2018-02-18T15:21:12.959Z,10.90
2018-02-18T15:23:46.893Z,10.90
2018-02-18T15:26:20.624Z,10.90
2018-02-18T15:28:55.886Z,11.00
2018-02-18T15:31:30.099Z,11.00
2018-02-18T15:34:04.131Z,10.80
2018-02-18T15:36:38.346Z,10.80
2018-02-18T15:39:12.090Z,10.60
2018-02-18T15:41:46.049Z,10.60
2018-02-18T15:44:20.153Z,10.50
2018-02-18T15:46:54.656Z,10.30
2018-02-18T15:49:29.125Z,10.20
2018-02-18T15:52:03.364Z,10.20
2018-02-18T15:54:37.585Z,10.10
2018-02-18T15:57:11.684Z,10.10
2018-02-18T15:59:46.625Z,10.00
2018-02-18T16:02:20.939Z,10.00
2018-02-18T16:04:55.160Z,9.90
2018-02-18T16:07:29.240Z,10.00
2018-02-18T16:10:03.055Z,9.80
2018-02-18T16:12:36.891Z,9.70
2018-02-18T16:15:10.852Z,9.60
2018-02-18T16:17:45.395Z,9.60
2018-02-18T16:20:19.408Z,9.70
2018-02-18T16:22:54.295Z,9.50
2018-02-18T16:25:29.422Z,9.40
2018-02-18T16:28:03.809Z,9.30
2018-02-18T16:30:37.863Z,9.30
2018-02-18T16:33:13.614Z,9.30
2018-02-18T16:35:47.800Z,9.20
2018-02-18T16:38:21.844Z,9.20
2018-02-18T16:40:56.006Z,9.20
2018-02-18T16:43:30.025Z,9.20
2018-02-18T16:46:03.977Z,9.20
2018-02-18T16:48:38.247Z,9.20
2018-02-18T16:51:12.189Z,9.10
2018-02-18T16:53:46.488Z,9.10
2018-02-18T16:56:21.048Z,9.00
2018-02-18T16:58:56.117Z,8.90
2018-02-18T17:01:31.332Z,8.90
2018-02-18T17:04:05.656Z,8.80
2018-02-18T17:06:39.837Z,8.70
2018-02-18T17:09:13.876Z,8.70
2018-02-18T17:11:48.946Z,8.70
2018-02-18T17:14:23.839Z,8.70
2018-02-18T17:16:57.584Z,8.70
2018-02-18T17:19:31.619Z,8.60
2018-02-18T17:22:05.655Z,8.50
2018-02-18T17:24:40.283Z,8.40
2018-02-18T17:27:14.353Z,8.30
2018-02-18T17:29:48.048Z,8.20
2018-02-18T17:32:22.089Z,8.20
2018-02-18T17:34:57.081Z,8.10
2018-02-18T17:37:31.597Z,8.10
2018-02-18T17:40:06.330Z,7.90
2018-02-18T17:42:41.134Z,7.90
2018-02-18T17:45:16.121Z,7.90
2018-02-18T17:47:50.182Z,7.90
2018-02-18T17:50:23.937Z,7.80
2018-02-18T17:52:57.596Z,7.70
2018-02-18T17:55:31.805Z,7.70
2018-02-18T17:58:05.943Z,7.70
2018-02-18T18:00:40.582Z,7.50
2018-02-18T18:03:14.885Z,7.50
2018-02-18T18:05:48.899Z,7.50
2018-02-18T18:08:22.987Z,7.50
2018-02-18T18:10:57.094Z,7.40
2018-02-18T18:13:31.737Z,7.30
2018-02-18T18:16:05.767Z,7.30
2018-02-18T18:18:39.869Z,7.30
2018-02-18T18:21:14.149Z,7.20
2018-02-18T18:23:48.616Z,7.20
2018-02-18T18:26:22.678Z,7.20
2018-02-18T18:28:57.324Z,7.20
2018-02-18T18:31:31.427Z,7.10
2018-02-18T18:34:05.107Z,7.10
2018-02-18T18:36:39.037Z,7.10
2018-02-18T18:39:12.759Z,7.10
2018-02-18T18:41:46.682Z,7.10
2018-02-18T18:44:20.676Z,7.10
2018-02-18T18:46:54.722Z,7.10
2018-02-18T18:49:28.702Z,7.00
2018-02-18T18:52:02.613Z,7.00
2018-02-18T18:54:36.618Z,7.00
2018-02-18T18:57:10.638Z,7.00
2018-02-18T18:59:44.758Z,7.00
2018-02-18T19:02:19.690Z,6.80
2018-02-18T19:04:53.884Z,6.80
2018-02-18T19:07:28.632Z,6.70
2018-02-18T19:10:02.672Z,6.70
2018-02-18T19:12:37.759Z,6.70
2018-02-18T19:15:13.078Z,6.70
2018-02-18T19:17:47.248Z,6.60
2018-02-18T19:20:21.505Z,6.60
2018-02-18T19:22:55.415Z,6.70
2018-02-18T19:25:29.357Z,6.60
2018-02-18T19:28:03.622Z,6.60
2018-02-18T19:30:37.753Z,6.60
2018-02-18T19:33:11.751Z,6.50
2018-02-18T19:35:45.752Z,6.50
2018-02-18T19:38:20.724Z,6.50
2018-02-18T19:40:54.877Z,6.50
2018-02-18T19:43:28.853Z,6.50
2018-02-18T19:46:04.010Z,6.50
2018-02-18T19:48:38.910Z,6.50
2018-02-18T19:51:13.854Z,6.40
2018-02-18T19:53:47.724Z,6.40
2018-02-18T19:56:22.459Z,6.30
2018-02-18T19:58:56.604Z,6.30
2018-02-18T20:01:30.377Z,6.20
2018-02-18T20:04:04.930Z,6.20
2018-02-18T20:06:38.917Z,6.20
2018-02-18T20:09:12.984Z,6.20
2018-02-18T20:11:47.221Z,6.20
2018-02-18T20:14:21.155Z,6.20
2018-02-18T20:16:54.876Z,6.20
2018-02-18T20:19:29.861Z,6.10
2018-02-18T20:22:04.724Z,6.10
2018-02-18T20:24:40.519Z,6.00
2018-02-18T20:27:14.104Z,6.00
2018-02-18T20:29:48.125Z,6.00
2018-02-18T20:32:21.935Z,6.00
2018-02-18T20:34:55.555Z,5.90
2018-02-18T20:37:29.871Z,6.00
2018-02-18T20:40:05.062Z,6.00
2018-02-18T20:42:38.944Z,6.00
2018-02-18T20:45:13.223Z,6.10
2018-02-18T20:47:47.443Z,6.10
2018-02-18T20:50:22.320Z,6.10
2018-02-18T20:52:57.086Z,6.10
2018-02-18T20:55:31.493Z,6.00
2018-02-18T20:58:05.344Z,6.00
2018-02-18T21:00:39.188Z,6.00
2018-02-18T21:03:13.111Z,5.90
2018-02-18T21:05:47.868Z,5.90
2018-02-18T21:08:22.456Z,5.90
2018-02-18T21:10:56.605Z,5.90
2018-02-18T21:13:30.834Z,5.90
2018-02-18T21:16:04.837Z,5.80
2018-02-18T21:18:38.795Z,5.80
2018-02-18T21:21:13.054Z,5.80
2018-02-18T21:23:47.076Z,5.70
2018-02-18T21:26:20.888Z,5.70
2018-02-18T21:28:55.463Z,5.70
2018-02-18T21:31:29.232Z,5.70
2018-02-18T21:34:03.706Z,5.70
2018-02-18T21:36:38.046Z,5.60
2018-02-18T21:39:12.172Z,5.60
2018-02-18T21:41:46.066Z,5.60
2018-02-18T21:44:20.410Z,5.60
2018-02-18T21:46:55.290Z,5.60
2018-02-18T21:49:30.246Z,5.70
2018-02-18T21:52:03.975Z,5.70
2018-02-18T21:54:37.754Z,5.70
2018-02-18T21:57:11.568Z,5.70
2018-02-18T21:59:45.659Z,5.70
2018-02-18T22:02:20.354Z,5.60
2018-02-18T22:04:55.444Z,5.60
2018-02-18T22:07:30.344Z,5.70
2018-02-18T22:10:04.473Z,5.60
2018-02-18T22:12:38.986Z,5.70
2018-02-18T22:15:13.144Z,5.70
2018-02-18T22:17:46.848Z,5.70
2018-02-18T22:20:20.747Z,5.70
2018-02-18T22:22:54.775Z,5.80
2018-02-18T22:25:29.038Z,5.70
2018-02-18T22:28:02.928Z,5.80
2018-02-18T22:30:37.162Z,5.70
2018-02-18T22:33:11.460Z,5.70
2018-02-18T22:35:45.594Z,5.70
2018-02-18T22:38:19.704Z,5.70
2018-02-18T22:40:53.631Z,5.70
2018-02-18T22:43:28.965Z,5.70
2018-02-18T22:46:03.344Z,5.70
2018-02-18T22:48:37.177Z,5.70
2018-02-18T22:51:11.796Z,5.70
2018-02-18T22:53:45.901Z,5.70
2018-02-18T22:56:20.215Z,5.60
2018-02-18T22:58:54.400Z,5.60
2018-02-18T23:01:29.424Z,5.60
2018-02-18T23:04:03.284Z,5.60
2018-02-18T23:06:36.899Z,5.50
2018-02-18T23:09:11.504Z,5.40
2018-02-18T23:11:45.637Z,5.40
2018-02-18T23:14:20.323Z,5.40
2018-02-18T23:16:55.176Z,5.40
2018-02-18T23:19:29.416Z,5.40
2018-02-18T23:22:03.924Z,5.30
2018-02-18T23:24:38.152Z,5.30
2018-02-18T23:27:12.154Z,5.30
2018-02-18T23:29:46.682Z,5.40
2018-02-18T23:32:20.868Z,5.30
2018-02-18T23:34:54.764Z,5.40
2018-02-18T23:37:28.634Z,5.30
2018-02-18T23:40:02.919Z,5.30
2018-02-18T23:42:36.872Z,5.30
2018-02-18T23:45:10.959Z,5.30
2018-02-18T23:47:44.787Z,5.30
2018-02-18T23:50:18.855Z,5.30
2018-02-18T23:52:54.111Z,5.20
2018-02-18T23:55:28.199Z,5.20
2018-02-18T23:58:02.995Z,5.10
